sensor_id;sensor_type;location;lat;lon;timestamp;P1;durP1;ratioP1;P2;durP2;ratioP2
19006;SDS011;9636;47.382;8.480;2023-03-01T00:01:37;5.33;;;4.70;;
19006;SDS011;9636;47.382;8.480;2023-03-01T00:04:04;5.07;;;4.57;;
19006;SDS011;9636;47.382;8.480;2023-03-01T00:06:31;5.07;;;4.57;;
19006;SDS011;9636;47.382;8.480;2023-03-01T00:08:58;5.23;;;4.73;;
19006;SDS011;9636;47.382;8.480;2023-03-01T00:11:26;5.30;;;4.50;;
19006;SDS011;9636;47.382;8.480;2023-03-01T00:13:54;5.57;;;5.07;;
19006;SDS011;9636;47.382;8.480;2023-03-01T00:16:22;4.93;;;4.43;;
19006;SDS011;9636;47.382;8.480;2023-03-01T00:18:51;5.80;;;4.77;;
19006;SDS011;9636;47.382;8.480;2023-03-01T00:21:18;5.10;;;4.60;;
19006;SDS011;9636;47.382;8.480;2023-03-01T00:23:46;6.63;;;5.13;;
19006;SDS011;9636;47.382;8.480;2023-03-01T00:26:14;6.47;;;4.60;;
19006;SDS011;9636;47.382;8.480;2023-03-01T00:28:42;5.17;;;4.67;;
19006;SDS011;9636;47.382;8.480;2023-03-01T00:31:10;5.30;;;4.80;;
19006;SDS011;9636;47.382;8.480;2023-03-01T00:33:38;4.90;;;4.50;;
19006;SDS011;9636;47.382;8.480;2023-03-01T00:36:07;5.10;;;4.60;;
19006;SDS011;9636;47.382;8.480;2023-03-01T00:38:34;5.77;;;4.93;;
19006;SDS011;9636;47.382;8.480;2023-03-01T00:41:05;5.10;;;4.60;;
19006;SDS011;9636;47.382;8.480;2023-03-01T00:43:32;5.63;;;4.90;;
19006;SDS011;9636;47.382;8.480;2023-03-01T00:46:01;6.73;;;5.47;;
19006;SDS011;9636;47.382;8.480;2023-03-01T00:48:29;6.00;;;4.60;;
19006;SDS011;9636;47.382;8.480;2023-03-01T00:50:56;5.50;;;4.97;;
19006;SDS011;9636;47.382;8.480;2023-03-01T00:53:24;6.20;;;5.20;;
19006;SDS011;9636;47.382;8.480;2023-03-01T00:55:51;6.03;;;4.80;;
19006;SDS011;9636;47.382;8.480;2023-03-01T00:58:18;5.77;;;5.20;;
19006;SDS011;9636;47.382;8.480;2023-03-01T01:00:46;5.70;;;5.10;;
19006;SDS011;9636;47.382;8.480;2023-03-01T01:03:13;5.27;;;4.77;;
19006;SDS011;9636;47.382;8.480;2023-03-01T01:05:40;5.93;;;5.33;;
19006;SDS011;9636;47.382;8.480;2023-03-01T01:08:07;5.37;;;4.87;;
19006;SDS011;9636;47.382;8.480;2023-03-01T01:10:35;5.07;;;4.57;;
19006;SDS011;9636;47.382;8.480;2023-03-01T01:13:02;6.77;;;5.43;;
19006;SDS011;9636;47.382;8.480;2023-03-01T01:15:32;5.40;;;4.90;;
19006;SDS011;9636;47.382;8.480;2023-03-01T01:18:00;6.43;;;5.70;;
19006;SDS011;9636;47.382;8.480;2023-03-01T01:20:27;5.60;;;5.00;;
19006;SDS011;9636;47.382;8.480;2023-03-01T01:22:54;6.03;;;5.40;;
19006;SDS011;9636;47.382;8.480;2023-03-01T01:25:21;6.00;;;5.40;;
19006;SDS011;9636;47.382;8.480;2023-03-01T01:27:51;6.10;;;5.50;;
19006;SDS011;9636;47.382;8.480;2023-03-01T01:30:18;6.50;;;5.50;;
19006;SDS011;9636;47.382;8.480;2023-03-01T01:32:45;6.93;;;5.43;;
19006;SDS011;9636;47.382;8.480;2023-03-01T01:35:12;5.77;;;5.17;;
19006;SDS011;9636;47.382;8.480;2023-03-01T01:37:39;5.67;;;5.07;;
19006;SDS011;9636;47.382;8.480;2023-03-01T01:40:08;5.90;;;5.30;;
19006;SDS011;9636;47.382;8.480;2023-03-01T01:42:36;6.10;;;5.47;;
19006;SDS011;9636;47.382;8.480;2023-03-01T01:48:00;5.90;;;5.37;;
19006;SDS011;9636;47.382;8.480;2023-03-01T01:50:27;6.03;;;5.43;;
19006;SDS011;9636;47.382;8.480;2023-03-01T01:53:02;5.77;;;5.17;;
19006;SDS011;9636;47.382;8.480;2023-03-01T01:55:31;6.00;;;5.40;;
19006;SDS011;9636;47.382;8.480;2023-03-01T01:58:00;6.03;;;5.30;;
19006;SDS011;9636;47.382;8.480;2023-03-01T02:00:28;6.33;;;5.73;;
19006;SDS011;9636;47.382;8.480;2023-03-01T02:02:57;6.07;;;5.43;;
19006;SDS011;9636;47.382;8.480;2023-03-01T02:05:28;5.90;;;5.30;;
19006;SDS011;9636;47.382;8.480;2023-03-01T02:07:59;5.80;;;5.23;;
19006;SDS011;9636;47.382;8.480;2023-03-01T02:10:26;5.97;;;5.37;;
19006;SDS011;9636;47.382;8.480;2023-03-01T02:12:54;6.40;;;5.47;;
19006;SDS011;9636;47.382;8.480;2023-03-01T02:15:22;5.90;;;5.20;;
19006;SDS011;9636;47.382;8.480;2023-03-01T02:17:49;6.30;;;5.67;;
19006;SDS011;9636;47.382;8.480;2023-03-01T02:20:19;5.70;;;5.20;;
19006;SDS011;9636;47.382;8.480;2023-03-01T02:22:49;6.27;;;5.67;;
19006;SDS011;9636;47.382;8.480;2023-03-01T02:25:23;5.90;;;5.30;;
19006;SDS011;9636;47.382;8.480;2023-03-01T02:27:52;7.33;;;6.00;;
19006;SDS011;9636;47.382;8.480;2023-03-01T02:30:22;6.53;;;5.83;;
19006;SDS011;9636;47.382;8.480;2023-03-01T02:32:52;6.27;;;5.67;;
19006;SDS011;9636;47.382;8.480;2023-03-01T02:35:19;5.90;;;4.93;;
19006;SDS011;9636;47.382;8.480;2023-03-01T02:37:47;5.90;;;5.30;;
19006;SDS011;9636;47.382;8.480;2023-03-01T02:40:15;6.27;;;5.67;;
19006;SDS011;9636;47.382;8.480;2023-03-01T02:42:45;6.23;;;5.63;;
19006;SDS011;9636;47.382;8.480;2023-03-01T02:45:14;5.93;;;5.43;;
19006;SDS011;9636;47.382;8.480;2023-03-01T02:47:42;5.90;;;5.30;;
19006;SDS011;9636;47.382;8.480;2023-03-01T02:50:12;6.47;;;5.33;;
19006;SDS011;9636;47.382;8.480;2023-03-01T02:52:43;6.00;;;5.40;;
19006;SDS011;9636;47.382;8.480;2023-03-01T02:55:12;5.80;;;5.30;;
19006;SDS011;9636;47.382;8.480;2023-03-01T02:57:41;7.60;;;5.90;;
19006;SDS011;9636;47.382;8.480;2023-03-01T03:00:10;5.90;;;5.23;;
19006;SDS011;9636;47.382;8.480;2023-03-01T03:02:45;6.10;;;5.50;;
19006;SDS011;9636;47.382;8.480;2023-03-01T03:05:14;7.07;;;5.60;;
19006;SDS011;9636;47.382;8.480;2023-03-01T03:07:42;6.43;;;5.73;;
19006;SDS011;9636;47.382;8.480;2023-03-01T03:10:10;5.90;;;5.30;;
19006;SDS011;9636;47.382;8.480;2023-03-01T03:12:38;6.13;;;5.53;;
19006;SDS011;9636;47.382;8.480;2023-03-01T03:15:05;7.70;;;5.43;;
19006;SDS011;9636;47.382;8.480;2023-03-01T03:17:34;5.57;;;5.00;;
19006;SDS011;9636;47.382;8.480;2023-03-01T03:20:02;6.00;;;5.40;;
19006;SDS011;9636;47.382;8.480;2023-03-01T03:22:30;8.07;;;6.13;;
19006;SDS011;9636;47.382;8.480;2023-03-01T03:24:59;6.43;;;5.73;;
19006;SDS011;9636;47.382;8.480;2023-03-01T03:27:27;6.03;;;5.43;;
19006;SDS011;9636;47.382;8.480;2023-03-01T03:29:54;6.43;;;5.80;;
19006;SDS011;9636;47.382;8.480;2023-03-01T03:32:21;6.00;;;5.40;;
19006;SDS011;9636;47.382;8.480;2023-03-01T03:34:48;6.40;;;5.70;;
19006;SDS011;9636;47.382;8.480;2023-03-01T03:37:17;6.63;;;5.70;;
19006;SDS011;9636;47.382;8.480;2023-03-01T03:39:58;7.30;;;6.20;;
19006;SDS011;9636;47.382;8.480;2023-03-01T03:42:25;6.17;;;5.57;;
19006;SDS011;9636;47.382;8.480;2023-03-01T03:44:55;6.27;;;5.57;;
19006;SDS011;9636;47.382;8.480;2023-03-01T04:00:26;5.67;;;5.07;;
19006;SDS011;9636;47.382;8.480;2023-03-01T04:02:58;5.87;;;5.33;;
19006;SDS011;9636;47.382;8.480;2023-03-01T04:11:42;6.57;;;5.83;;
19006;SDS011;9636;47.382;8.480;2023-03-01T04:17:31;6.20;;;5.50;;
19006;SDS011;9636;47.382;8.480;2023-03-01T04:29:24;6.17;;;5.57;;
19006;SDS011;9636;47.382;8.480;2023-03-01T04:31:59;6.10;;;5.50;;
19006;SDS011;9636;47.382;8.480;2023-03-01T04:34:34;6.03;;;5.43;;
19006;SDS011;9636;47.382;8.480;2023-03-01T04:37:11;5.97;;;5.37;;
19006;SDS011;9636;47.382;8.480;2023-03-01T04:39:54;6.07;;;5.47;;
19006;SDS011;9636;47.382;8.480;2023-03-01T04:52:09;6.37;;;5.47;;
19006;SDS011;9636;47.382;8.480;2023-03-01T04:55:00;6.00;;;5.40;;
19006;SDS011;9636;47.382;8.480;2023-03-01T05:04:10;6.37;;;5.47;;
19006;SDS011;9636;47.382;8.480;2023-03-01T05:13:17;5.83;;;5.23;;
19006;SDS011;9636;47.382;8.480;2023-03-01T05:31:22;5.33;;;4.77;;
19006;SDS011;9636;47.382;8.480;2023-03-01T05:34:11;5.27;;;4.77;;
19006;SDS011;9636;47.382;8.480;2023-03-01T05:43:13;5.07;;;4.57;;
19006;SDS011;9636;47.382;8.480;2023-03-01T05:52:20;4.77;;;4.30;;
19006;SDS011;9636;47.382;8.480;2023-03-01T05:54:50;5.10;;;4.60;;
19006;SDS011;9636;47.382;8.480;2023-03-01T06:03:45;5.60;;;4.50;;
19006;SDS011;9636;47.382;8.480;2023-03-01T06:12:37;4.63;;;4.10;;
19006;SDS011;9636;47.382;8.480;2023-03-01T06:15:11;4.37;;;3.97;;
19006;SDS011;9636;47.382;8.480;2023-03-01T06:17:53;4.63;;;4.23;;
19006;SDS011;9636;47.382;8.480;2023-03-01T06:20:52;5.17;;;4.30;;
19006;SDS011;9636;47.382;8.480;2023-03-01T06:23:37;4.40;;;4.00;;
19006;SDS011;9636;47.382;8.480;2023-03-01T06:34:36;4.53;;;3.83;;
19006;SDS011;9636;47.382;8.480;2023-03-01T06:37:33;4.63;;;4.23;;
19006;SDS011;9636;47.382;8.480;2023-03-01T06:43:44;5.00;;;4.27;;
19006;SDS011;9636;47.382;8.480;2023-03-01T06:52:31;3.93;;;3.53;;
19006;SDS011;9636;47.382;8.480;2023-03-01T06:55:05;4.00;;;3.60;;
19006;SDS011;9636;47.382;8.480;2023-03-01T06:57:32;4.10;;;3.67;;
19006;SDS011;9636;47.382;8.480;2023-03-01T07:00:06;4.30;;;3.70;;
19006;SDS011;9636;47.382;8.480;2023-03-01T07:02:42;4.27;;;3.80;;
19006;SDS011;9636;47.382;8.480;2023-03-01T07:05:09;4.30;;;3.90;;
19006;SDS011;9636;47.382;8.480;2023-03-01T07:07:45;4.23;;;3.83;;
19006;SDS011;9636;47.382;8.480;2023-03-01T07:10:32;4.20;;;3.80;;
19006;SDS011;9636;47.382;8.480;2023-03-01T07:13:10;4.30;;;3.90;;
19006;SDS011;9636;47.382;8.480;2023-03-01T07:15:55;4.00;;;3.60;;
19006;SDS011;9636;47.382;8.480;2023-03-01T07:18:22;4.40;;;4.00;;
19006;SDS011;9636;47.382;8.480;2023-03-01T07:20:49;4.23;;;3.83;;
19006;SDS011;9636;47.382;8.480;2023-03-01T07:23:18;4.07;;;3.67;;
19006;SDS011;9636;47.382;8.480;2023-03-01T07:25:50;4.10;;;3.70;;
19006;SDS011;9636;47.382;8.480;2023-03-01T07:28:17;4.27;;;3.87;;
19006;SDS011;9636;47.382;8.480;2023-03-01T07:30:45;3.50;;;3.20;;
19006;SDS011;9636;47.382;8.480;2023-03-01T07:33:12;4.30;;;3.90;;
19006;SDS011;9636;47.382;8.480;2023-03-01T07:35:39;4.33;;;3.93;;
19006;SDS011;9636;47.382;8.480;2023-03-01T07:38:06;3.63;;;3.33;;
19006;SDS011;9636;47.382;8.480;2023-03-01T07:40:35;4.00;;;3.70;;
19006;SDS011;9636;47.382;8.480;2023-03-01T07:43:02;4.03;;;3.63;;
19006;SDS011;9636;47.382;8.480;2023-03-01T07:45:29;4.30;;;3.90;;
19006;SDS011;9636;47.382;8.480;2023-03-01T07:47:56;4.27;;;3.87;;
19006;SDS011;9636;47.382;8.480;2023-03-01T07:50:23;3.90;;;3.50;;
19006;SDS011;9636;47.382;8.480;2023-03-01T07:52:50;4.27;;;3.87;;
19006;SDS011;9636;47.382;8.480;2023-03-01T07:55:17;3.80;;;3.50;;
19006;SDS011;9636;47.382;8.480;2023-03-01T07:57:46;4.10;;;3.70;;
19006;SDS011;9636;47.382;8.480;2023-03-01T08:00:13;3.93;;;3.50;;
19006;SDS011;9636;47.382;8.480;2023-03-01T08:02:40;3.97;;;3.57;;
19006;SDS011;9636;47.382;8.480;2023-03-01T08:05:08;4.37;;;3.63;;
19006;SDS011;9636;47.382;8.480;2023-03-01T08:07:35;4.00;;;3.60;;
19006;SDS011;9636;47.382;8.480;2023-03-01T08:10:02;4.50;;;4.10;;
19006;SDS011;9636;47.382;8.480;2023-03-01T08:12:29;4.50;;;4.10;;
19006;SDS011;9636;47.382;8.480;2023-03-01T08:14:58;4.50;;;4.07;;
19006;SDS011;9636;47.382;8.480;2023-03-01T08:17:25;4.43;;;4.03;;
19006;SDS011;9636;47.382;8.480;2023-03-01T08:19:52;4.40;;;4.00;;
19006;SDS011;9636;47.382;8.480;2023-03-01T08:22:19;4.27;;;3.87;;
19006;SDS011;9636;47.382;8.480;2023-03-01T08:24:46;4.70;;;4.20;;
19006;SDS011;9636;47.382;8.480;2023-03-01T08:27:14;4.00;;;3.60;;
19006;SDS011;9636;47.382;8.480;2023-03-01T08:29:41;3.83;;;3.53;;
19006;SDS011;9636;47.382;8.480;2023-03-01T08:32:10;4.40;;;4.00;;
19006;SDS011;9636;47.382;8.480;2023-03-01T08:34:37;4.30;;;3.90;;
19006;SDS011;9636;47.382;8.480;2023-03-01T08:37:04;4.53;;;3.93;;
19006;SDS011;9636;47.382;8.480;2023-03-01T08:39:31;4.53;;;4.00;;
19006;SDS011;9636;47.382;8.480;2023-03-01T08:41:58;4.50;;;4.10;;
19006;SDS011;9636;47.382;8.480;2023-03-01T08:44:25;4.97;;;4.33;;
19006;SDS011;9636;47.382;8.480;2023-03-01T08:46:52;5.43;;;4.20;;
19006;SDS011;9636;47.382;8.480;2023-03-01T08:49:22;3.97;;;3.57;;
19006;SDS011;9636;47.382;8.480;2023-03-01T08:51:49;4.20;;;3.80;;
19006;SDS011;9636;47.382;8.480;2023-03-01T08:54:17;4.47;;;4.07;;
19006;SDS011;9636;47.382;8.480;2023-03-01T08:56:45;4.20;;;3.80;;
19006;SDS011;9636;47.382;8.480;2023-03-01T08:59:13;4.57;;;4.13;;
19006;SDS011;9636;47.382;8.480;2023-03-01T09:01:41;4.10;;;3.70;;
19006;SDS011;9636;47.382;8.480;2023-03-01T09:04:09;5.03;;;4.00;;
19006;SDS011;9636;47.382;8.480;2023-03-01T09:06:37;4.87;;;4.37;;
19006;SDS011;9636;47.382;8.480;2023-03-01T09:09:05;4.53;;;4.13;;
19006;SDS011;9636;47.382;8.480;2023-03-01T09:11:34;5.43;;;4.40;;
19006;SDS011;9636;47.382;8.480;2023-03-01T09:14:04;4.37;;;3.97;;
19006;SDS011;9636;47.382;8.480;2023-03-01T09:16:32;4.30;;;3.87;;
19006;SDS011;9636;47.382;8.480;2023-03-01T09:19:00;4.50;;;4.10;;
19006;SDS011;9636;47.382;8.480;2023-03-01T09:21:28;4.40;;;3.97;;
19006;SDS011;9636;47.382;8.480;2023-03-01T09:23:57;4.80;;;3.97;;
19006;SDS011;9636;47.382;8.480;2023-03-01T09:26:24;4.40;;;4.00;;
19006;SDS011;9636;47.382;8.480;2023-03-01T09:28:53;4.60;;;4.20;;
19006;SDS011;9636;47.382;8.480;2023-03-01T09:31:20;4.83;;;4.40;;
19006;SDS011;9636;47.382;8.480;2023-03-01T09:33:48;4.83;;;4.20;;
19006;SDS011;9636;47.382;8.480;2023-03-01T09:36:16;4.47;;;4.07;;
19006;SDS011;9636;47.382;8.480;2023-03-01T09:38:43;4.50;;;4.10;;
19006;SDS011;9636;47.382;8.480;2023-03-01T09:41:17;4.37;;;3.97;;
19006;SDS011;9636;47.382;8.480;2023-03-01T09:43:51;4.50;;;4.10;;
19006;SDS011;9636;47.382;8.480;2023-03-01T09:46:19;4.63;;;4.23;;
19006;SDS011;9636;47.382;8.480;2023-03-01T09:48:48;4.67;;;4.23;;
19006;SDS011;9636;47.382;8.480;2023-03-01T09:51:17;4.27;;;3.90;;
19006;SDS011;9636;47.382;8.480;2023-03-01T09:53:45;4.53;;;4.10;;
19006;SDS011;9636;47.382;8.480;2023-03-01T09:56:15;4.40;;;4.00;;
19006;SDS011;9636;47.382;8.480;2023-03-01T09:58:47;5.30;;;4.50;;
19006;SDS011;9636;47.382;8.480;2023-03-01T10:01:23;5.17;;;4.20;;
19006;SDS011;9636;47.382;8.480;2023-03-01T10:03:58;4.70;;;4.23;;
19006;SDS011;9636;47.382;8.480;2023-03-01T10:06:28;4.43;;;4.03;;
19006;SDS011;9636;47.382;8.480;2023-03-01T10:08:56;4.90;;;4.40;;
19006;SDS011;9636;47.382;8.480;2023-03-01T10:11:27;4.97;;;4.47;;
19006;SDS011;9636;47.382;8.480;2023-03-01T10:13:57;5.00;;;4.50;;
19006;SDS011;9636;47.382;8.480;2023-03-01T10:16:27;4.57;;;4.13;;
19006;SDS011;9636;47.382;8.480;2023-03-01T10:18:56;4.70;;;4.27;;
19006;SDS011;9636;47.382;8.480;2023-03-01T10:21:25;5.17;;;4.67;;
19006;SDS011;9636;47.382;8.480;2023-03-01T10:23:53;4.97;;;4.50;;
19006;SDS011;9636;47.382;8.480;2023-03-01T10:29:08;5.37;;;4.87;;
19006;SDS011;9636;47.382;8.480;2023-03-01T10:31:39;6.03;;;4.60;;
19006;SDS011;9636;47.382;8.480;2023-03-01T10:34:09;4.80;;;4.30;;
19006;SDS011;9636;47.382;8.480;2023-03-01T10:36:36;5.00;;;4.43;;
19006;SDS011;9636;47.382;8.480;2023-03-01T10:39:10;4.70;;;4.30;;
19006;SDS011;9636;47.382;8.480;2023-03-01T10:41:40;5.07;;;4.57;;
19006;SDS011;9636;47.382;8.480;2023-03-01T10:44:12;5.00;;;4.50;;
19006;SDS011;9636;47.382;8.480;2023-03-01T10:47:00;5.40;;;4.67;;
19006;SDS011;9636;47.382;8.480;2023-03-01T10:49:27;5.10;;;4.60;;
19006;SDS011;9636;47.382;8.480;2023-03-01T10:51:54;5.00;;;4.50;;
19006;SDS011;9636;47.382;8.480;2023-03-01T10:54:22;5.10;;;4.60;;
19006;SDS011;9636;47.382;8.480;2023-03-01T10:56:50;5.03;;;4.53;;
19006;SDS011;9636;47.382;8.480;2023-03-01T10:59:22;5.37;;;4.87;;
19006;SDS011;9636;47.382;8.480;2023-03-01T11:02:00;4.90;;;4.40;;
19006;SDS011;9636;47.382;8.480;2023-03-01T11:04:27;5.07;;;4.57;;
19006;SDS011;9636;47.382;8.480;2023-03-01T11:06:57;5.53;;;4.80;;
19006;SDS011;9636;47.382;8.480;2023-03-01T11:09:25;5.40;;;4.90;;
19006;SDS011;9636;47.382;8.480;2023-03-01T11:11:53;5.40;;;4.70;;
19006;SDS011;9636;47.382;8.480;2023-03-01T11:14:22;4.73;;;4.33;;
19006;SDS011;9636;47.382;8.480;2023-03-01T11:16:58;5.17;;;4.63;;
19006;SDS011;9636;47.382;8.480;2023-03-01T11:19:25;5.80;;;4.93;;
19006;SDS011;9636;47.382;8.480;2023-03-01T11:21:57;6.07;;;5.47;;
19006;SDS011;9636;47.382;8.480;2023-03-01T11:24:27;6.40;;;5.13;;
19006;SDS011;9636;47.382;8.480;2023-03-01T11:26:56;6.00;;;5.30;;
19006;SDS011;9636;47.382;8.480;2023-03-01T11:29:27;7.03;;;6.07;;
19006;SDS011;9636;47.382;8.480;2023-03-01T11:31:57;5.80;;;5.10;;
19006;SDS011;9636;47.382;8.480;2023-03-01T11:34:28;5.73;;;5.13;;
19006;SDS011;9636;47.382;8.480;2023-03-01T11:36:58;5.80;;;5.20;;
19006;SDS011;9636;47.382;8.480;2023-03-01T11:39:27;6.97;;;5.83;;
19006;SDS011;9636;47.382;8.480;2023-03-01T11:42:00;5.87;;;5.07;;
19006;SDS011;9636;47.382;8.480;2023-03-01T11:44:30;5.60;;;5.10;;
19006;SDS011;9636;47.382;8.480;2023-03-01T11:47:07;6.00;;;5.37;;
19006;SDS011;9636;47.382;8.480;2023-03-01T11:49:48;6.50;;;5.30;;
19006;SDS011;9636;47.382;8.480;2023-03-01T11:52:21;6.63;;;5.30;;
19006;SDS011;9636;47.382;8.480;2023-03-01T11:54:53;7.13;;;5.20;;
19006;SDS011;9636;47.382;8.480;2023-03-01T11:57:28;6.28;;;5.68;;
19006;SDS011;9636;47.382;8.480;2023-03-01T12:00:13;5.70;;;4.90;;
19006;SDS011;9636;47.382;8.480;2023-03-01T12:05:42;5.70;;;5.10;;
19006;SDS011;9636;47.382;8.480;2023-03-01T12:08:12;5.40;;;4.90;;
19006;SDS011;9636;47.382;8.480;2023-03-01T12:10:42;5.10;;;4.60;;
19006;SDS011;9636;47.382;8.480;2023-03-01T12:13:23;6.17;;;5.30;;
19006;SDS011;9636;47.382;8.480;2023-03-01T12:15:59;5.63;;;5.00;;
19006;SDS011;9636;47.382;8.480;2023-03-01T12:18:35;5.57;;;5.03;;
19006;SDS011;9636;47.382;8.480;2023-03-01T12:21:10;5.83;;;5.20;;
19006;SDS011;9636;47.382;8.480;2023-03-01T12:23:44;6.13;;;4.87;;
19006;SDS011;9636;47.382;8.480;2023-03-01T12:29:00;5.40;;;4.90;;
19006;SDS011;9636;47.382;8.480;2023-03-01T12:31:35;5.13;;;4.60;;
19006;SDS011;9636;47.382;8.480;2023-03-01T12:34:09;6.30;;;4.77;;
19006;SDS011;9636;47.382;8.480;2023-03-01T12:39:38;5.63;;;4.80;;
19006;SDS011;9636;47.382;8.480;2023-03-01T12:42:10;5.27;;;4.77;;
19006;SDS011;9636;47.382;8.480;2023-03-01T12:44:42;5.37;;;4.57;;
19006;SDS011;9636;47.382;8.480;2023-03-01T12:47:19;6.50;;;5.00;;
19006;SDS011;9636;47.382;8.480;2023-03-01T12:49:49;5.77;;;5.07;;
19006;SDS011;9636;47.382;8.480;2023-03-01T12:52:19;5.90;;;5.07;;
19006;SDS011;9636;47.382;8.480;2023-03-01T12:54:49;6.67;;;4.97;;
19006;SDS011;9636;47.382;8.480;2023-03-01T12:57:20;5.67;;;4.77;;
19006;SDS011;9636;47.382;8.480;2023-03-01T12:59:51;5.10;;;4.60;;
19006;SDS011;9636;47.382;8.480;2023-03-01T13:02:28;5.43;;;4.80;;
19006;SDS011;9636;47.382;8.480;2023-03-01T13:05:00;5.33;;;4.83;;
19006;SDS011;9636;47.382;8.480;2023-03-01T13:07:35;4.87;;;4.40;;
19006;SDS011;9636;47.382;8.480;2023-03-01T13:10:11;5.37;;;4.70;;
19006;SDS011;9636;47.382;8.480;2023-03-01T13:12:45;5.33;;;4.83;;
19006;SDS011;9636;47.382;8.480;2023-03-01T13:21:03;5.23;;;4.73;;
19006;SDS011;9636;47.382;8.480;2023-03-01T13:23:34;5.47;;;4.97;;
19006;SDS011;9636;47.382;8.480;2023-03-01T13:26:09;5.20;;;4.70;;
19006;SDS011;9636;47.382;8.480;2023-03-01T13:28:47;5.83;;;5.07;;
19006;SDS011;9636;47.382;8.480;2023-03-01T13:34:01;5.27;;;4.73;;
19006;SDS011;9636;47.382;8.480;2023-03-01T13:36:48;5.57;;;5.00;;
19006;SDS011;9636;47.382;8.480;2023-03-01T13:39:26;5.37;;;4.80;;
19006;SDS011;9636;47.382;8.480;2023-03-01T13:41:56;6.80;;;5.10;;
19006;SDS011;9636;47.382;8.480;2023-03-01T13:44:25;5.50;;;4.83;;
19006;SDS011;9636;47.382;8.480;2023-03-01T13:46:54;6.83;;;5.17;;
19006;SDS011;9636;47.382;8.480;2023-03-01T13:49:23;4.90;;;4.40;;
19006;SDS011;9636;47.382;8.480;2023-03-01T13:51:53;6.37;;;5.33;;
19006;SDS011;9636;47.382;8.480;2023-03-01T13:54:25;5.57;;;4.70;;
19006;SDS011;9636;47.382;8.480;2023-03-01T13:56:52;5.63;;;4.80;;
19006;SDS011;9636;47.382;8.480;2023-03-01T13:59:20;5.77;;;4.97;;
19006;SDS011;9636;47.382;8.480;2023-03-01T14:01:51;5.30;;;4.80;;
19006;SDS011;9636;47.382;8.480;2023-03-01T14:04:20;5.13;;;4.63;;
19006;SDS011;9636;47.382;8.480;2023-03-01T14:06:47;5.67;;;4.70;;
19006;SDS011;9636;47.382;8.480;2023-03-01T14:09:17;6.23;;;4.97;;
19006;SDS011;9636;47.382;8.480;2023-03-01T14:11:58;5.77;;;5.00;;
19006;SDS011;9636;47.382;8.480;2023-03-01T14:17:27;5.33;;;4.83;;
19006;SDS011;9636;47.382;8.480;2023-03-01T14:19:59;5.87;;;4.70;;
19006;SDS011;9636;47.382;8.480;2023-03-01T14:22:27;5.20;;;4.70;;
19006;SDS011;9636;47.382;8.480;2023-03-01T14:24:56;5.20;;;4.70;;
19006;SDS011;9636;47.382;8.480;2023-03-01T14:27:25;5.40;;;4.90;;
19006;SDS011;9636;47.382;8.480;2023-03-01T14:29:57;5.40;;;4.90;;
19006;SDS011;9636;47.382;8.480;2023-03-01T14:32:25;5.63;;;5.03;;
19006;SDS011;9636;47.382;8.480;2023-03-01T14:34:52;5.10;;;4.60;;
19006;SDS011;9636;47.382;8.480;2023-03-01T14:37:21;5.60;;;4.77;;
19006;SDS011;9636;47.382;8.480;2023-03-01T14:39:48;5.27;;;4.60;;
19006;SDS011;9636;47.382;8.480;2023-03-01T14:42:17;6.70;;;5.20;;
19006;SDS011;9636;47.382;8.480;2023-03-01T14:44:46;5.60;;;5.00;;
19006;SDS011;9636;47.382;8.480;2023-03-01T14:47:14;5.57;;;5.03;;
19006;SDS011;9636;47.382;8.480;2023-03-01T14:49:42;5.63;;;4.80;;
19006;SDS011;9636;47.382;8.480;2023-03-01T14:52:17;5.87;;;4.93;;
19006;SDS011;9636;47.382;8.480;2023-03-01T14:54:46;5.60;;;5.00;;
19006;SDS011;9636;47.382;8.480;2023-03-01T14:57:14;5.80;;;5.13;;
19006;SDS011;9636;47.382;8.480;2023-03-01T14:59:43;5.47;;;4.93;;
19006;SDS011;9636;47.382;8.480;2023-03-01T15:02:11;5.30;;;4.80;;
19006;SDS011;9636;47.382;8.480;2023-03-01T15:04:42;6.00;;;5.40;;
19006;SDS011;9636;47.382;8.480;2023-03-01T15:07:09;5.37;;;4.87;;
19006;SDS011;9636;47.382;8.480;2023-03-01T15:09:38;5.27;;;4.77;;
19006;SDS011;9636;47.382;8.480;2023-03-01T15:12:31;6.37;;;5.07;;
19006;SDS011;9636;47.382;8.480;2023-03-01T15:15:06;6.10;;;5.23;;
19006;SDS011;9636;47.382;8.480;2023-03-01T15:17:48;5.57;;;4.80;;
19006;SDS011;9636;47.382;8.480;2023-03-01T15:20:17;5.30;;;4.77;;
19006;SDS011;9636;47.382;8.480;2023-03-01T15:22:46;5.77;;;5.17;;
19006;SDS011;9636;47.382;8.480;2023-03-01T15:25:14;5.77;;;5.17;;
19006;SDS011;9636;47.382;8.480;2023-03-01T15:27:44;5.80;;;5.20;;
19006;SDS011;9636;47.382;8.480;2023-03-01T15:30:16;5.87;;;5.20;;
19006;SDS011;9636;47.382;8.480;2023-03-01T15:32:44;5.30;;;4.80;;
19006;SDS011;9636;47.382;8.480;2023-03-01T15:37:57;5.53;;;5.00;;
19006;SDS011;9636;47.382;8.480;2023-03-01T15:40:26;5.40;;;4.90;;
19006;SDS011;9636;47.382;8.480;2023-03-01T15:42:57;6.03;;;5.03;;
19006;SDS011;9636;47.382;8.480;2023-03-01T15:45:27;5.90;;;5.00;;
19006;SDS011;9636;47.382;8.480;2023-03-01T15:47:54;5.87;;;5.27;;
19006;SDS011;9636;47.382;8.480;2023-03-01T15:50:24;5.80;;;5.13;;
19006;SDS011;9636;47.382;8.480;2023-03-01T15:52:52;5.80;;;5.20;;
19006;SDS011;9636;47.382;8.480;2023-03-01T15:55:20;5.10;;;4.60;;
19006;SDS011;9636;47.382;8.480;2023-03-01T15:57:48;6.87;;;5.60;;
19006;SDS011;9636;47.382;8.480;2023-03-01T16:00:15;5.87;;;5.03;;
19006;SDS011;9636;47.382;8.480;2023-03-01T16:02:44;5.90;;;5.30;;
19006;SDS011;9636;47.382;8.480;2023-03-01T16:05:17;6.13;;;5.53;;
19006;SDS011;9636;47.382;8.480;2023-03-01T16:07:45;5.93;;;5.33;;
19006;SDS011;9636;47.382;8.480;2023-03-01T16:10:12;5.30;;;4.80;;
19006;SDS011;9636;47.382;8.480;2023-03-01T16:12:39;5.80;;;5.20;;
19006;SDS011;9636;47.382;8.480;2023-03-01T16:15:09;5.30;;;4.80;;
19006;SDS011;9636;47.382;8.480;2023-03-01T16:17:40;5.30;;;4.80;;
19006;SDS011;9636;47.382;8.480;2023-03-01T16:20:09;5.30;;;4.80;;
19006;SDS011;9636;47.382;8.480;2023-03-01T16:22:37;5.37;;;4.87;;
19006;SDS011;9636;47.382;8.480;2023-03-01T16:25:04;5.47;;;4.87;;
19006;SDS011;9636;47.382;8.480;2023-03-01T16:27:33;5.70;;;5.10;;
19006;SDS011;9636;47.382;8.480;2023-03-01T16:30:00;5.13;;;4.63;;
19006;SDS011;9636;47.382;8.480;2023-03-01T16:32:27;5.70;;;5.10;;
19006;SDS011;9636;47.382;8.480;2023-03-01T16:34:54;5.40;;;4.90;;
19006;SDS011;9636;47.382;8.480;2023-03-01T16:37:22;6.60;;;5.50;;
19006;SDS011;9636;47.382;8.480;2023-03-01T16:39:49;5.87;;;5.27;;
19006;SDS011;9636;47.382;8.480;2023-03-01T16:42:17;5.60;;;5.03;;
19006;SDS011;9636;47.382;8.480;2023-03-01T16:44:45;5.63;;;5.03;;
19006;SDS011;9636;47.382;8.480;2023-03-01T16:47:12;6.20;;;5.60;;
19006;SDS011;9636;47.382;8.480;2023-03-01T16:49:39;5.77;;;5.20;;
19006;SDS011;9636;47.382;8.480;2023-03-01T16:52:06;6.27;;;5.27;;
19006;SDS011;9636;47.382;8.480;2023-03-01T16:54:34;5.43;;;4.53;;
19006;SDS011;9636;47.382;8.480;2023-03-01T16:57:02;6.13;;;5.23;;
19006;SDS011;9636;47.382;8.480;2023-03-01T16:59:29;5.67;;;5.07;;
19006;SDS011;9636;47.382;8.480;2023-03-01T17:01:56;5.70;;;5.20;;
19006;SDS011;9636;47.382;8.480;2023-03-01T17:04:23;5.63;;;5.13;;
19006;SDS011;9636;47.382;8.480;2023-03-01T17:06:51;5.83;;;5.23;;
19006;SDS011;9636;47.382;8.480;2023-03-01T17:09:18;5.77;;;5.23;;
19006;SDS011;9636;47.382;8.480;2023-03-01T17:11:48;6.37;;;5.37;;
19006;SDS011;9636;47.382;8.480;2023-03-01T17:14:15;6.30;;;5.70;;
19006;SDS011;9636;47.382;8.480;2023-03-01T17:16:42;7.00;;;5.97;;
19006;SDS011;9636;47.382;8.480;2023-03-01T17:19:10;6.10;;;5.50;;
19006;SDS011;9636;47.382;8.480;2023-03-01T17:21:42;6.33;;;5.57;;
19006;SDS011;9636;47.382;8.480;2023-03-01T17:24:09;7.13;;;6.07;;
19006;SDS011;9636;47.382;8.480;2023-03-01T17:26:37;7.53;;;6.50;;
19006;SDS011;9636;47.382;8.480;2023-03-01T17:29:05;6.87;;;5.83;;
19006;SDS011;9636;47.382;8.480;2023-03-01T17:31:33;6.37;;;5.70;;
19006;SDS011;9636;47.382;8.480;2023-03-01T17:34:00;6.90;;;6.00;;
19006;SDS011;9636;47.382;8.480;2023-03-01T17:36:27;7.00;;;5.80;;
19006;SDS011;9636;47.382;8.480;2023-03-01T17:38:54;6.57;;;5.70;;
19006;SDS011;9636;47.382;8.480;2023-03-01T17:41:21;6.50;;;5.50;;